Time;durP1;ratioP1;P1;durP2;ratioP2;P2;SDS_P1;SDS_P2;PMS_P1;PMS_P2;Temp;Humidity;BMP_temperature;BMP_pressure;BME280_temperature;BME280_humidity;BME280_pressure;Samples;Min_cycle;Max_cycle;Signal;HPM_P1;HPM_P2
2022/01/01 00:01:23;;;;;;;5.47;3.65;;;10.30;90.00;;;;;;5053916;28;20052;-79
2022/01/01 00:03:50;;;;;;;5.18;3.38;;;10.40;90.10;;;;;;5036093;28;20037;-80
2022/01/01 00:06:16;;;;;;;4.00;3.30;;;10.40;90.10;;;;;;5052769;28;20029;-80
2022/01/01 00:08:42;;;;;;;6.32;3.50;;;10.40;90.00;;;;;;5049620;28;20068;-79
2022/01/01 00:11:08;;;;;;;4.20;2.95;;;10.40;90.10;;;;;;5016296;28;20033;-80
2022/01/01 00:13:34;;;;;;;4.90;3.47;;;10.30;90.20;;;;;;5034069;28;20121;-78
2022/01/01 00:15:59;;;;;;;5.20;2.80;;;10.30;90.20;;;;;;5015998;28;20033;-80
2022/01/01 00:18:25;;;;;;;5.13;2.85;;;10.30;90.30;;;;;;5040669;28;20010;-79
2022/01/01 00:20:59;;;;;;;4.43;3.03;;;10.20;90.30;;;;;;5053790;28;20020;-80
2022/01/01 00:23:25;;;;;;;6.07;3.13;;;10.20;90.50;;;;;;5054438;28;20076;-80
2022/01/01 00:25:51;;;;;;;4.63;3.40;;;10.20;90.50;;;;;;5036084;28;20032;-80
2022/01/01 00:28:22;;;;;;;5.00;3.00;;;10.20;90.60;;;;;;5037734;28;20061;-80
2022/01/01 00:30:48;;;;;;;4.72;3.10;;;10.10;90.70;;;;;;5055779;28;20029;-81
2022/01/01 00:33:14;;;;;;;7.22;3.40;;;10.10;90.70;;;;;;5036641;28;20013;-78
2022/01/01 00:35:43;;;;;;;5.20;2.75;;;10.20;90.80;;;;;;5035068;28;20109;-80
2022/01/01 00:38:19;;;;;;;4.30;2.83;;;10.10;90.80;;;;;;5020539;28;20076;-79
2022/01/01 00:40:45;;;;;;;3.65;2.92;;;10.10;90.80;;;;;;5016242;28;20029;-79
2022/01/01 00:43:10;;;;;;;4.32;2.55;;;10.10;90.90;;;;;;5015862;28;20022;-80
2022/01/01 00:45:36;;;;;;;4.10;2.78;;;10.10;91.00;;;;;;5015810;28;20106;-81
2022/01/01 00:48:02;;;;;;;6.07;3.55;;;10.10;91.00;;;;;;5015686;28;20036;-81
2022/01/01 00:50:28;;;;;;;4.95;2.95;;;10.10;91.10;;;;;;5048803;28;20045;-78
2022/01/01 00:52:54;;;;;;;3.88;2.90;;;10.00;91.10;;;;;;5035780;28;20056;-79
2022/01/01 00:55:20;;;;;;;4.68;2.55;;;10.00;91.20;;;;;;5052404;28;20056;-79
2022/01/01 00:57:47;;;;;;;4.13;2.30;;;10.00;91.20;;;;;;5053072;28;20040;-79
2022/01/01 01:00:15;;;;;;;2.42;2.03;;;10.00;91.20;;;;;;5034614;28;20052;-80
2022/01/01 01:02:41;;;;;;;2.67;2.33;;;10.00;91.30;;;;;;5052933;28;20021;-79
2022/01/01 01:05:08;;;;;;;4.50;2.63;;;9.90;91.30;;;;;;5053529;28;20037;-79
2022/01/01 01:07:34;;;;;;;2.97;2.25;;;9.90;91.30;;;;;;5050172;28;20192;-79
2022/01/01 01:09:59;;;;;;;5.05;2.65;;;9.90;91.30;;;;;;5034997;28;20033;-79
2022/01/01 01:12:34;;;;;;;5.18;2.67;;;9.90;91.30;;;;;;5035097;28;20021;-80
2022/01/01 01:15:01;;;;;;;5.53;2.75;;;9.90;91.40;;;;;;5034877;28;20124;-80
2022/01/01 01:17:26;;;;;;;3.33;2.50;;;9.90;91.40;;;;;;5034916;28;20089;-80
2022/01/01 01:19:56;;;;;;;3.60;2.53;;;9.90;91.50;;;;;;5054335;28;20021;-79
2022/01/01 01:22:21;;;;;;;4.47;2.40;;;9.80;91.50;;;;;;5052849;28;20028;-79
2022/01/01 01:24:47;;;;;;;3.55;2.67;;;9.80;91.60;;;;;;5034102;28;20038;-79
2022/01/01 01:27:13;;;;;;;3.55;2.58;;;9.80;91.70;;;;;;5034229;28;20025;-80
2022/01/01 01:29:42;;;;;;;2.92;2.50;;;9.70;91.80;;;;;;5049241;28;20032;-79
2022/01/01 01:32:08;;;;;;;3.35;2.35;;;9.70;91.80;;;;;;5052130;28;20006;-79
2022/01/01 01:34:34;;;;;;;3.00;2.33;;;9.70;91.90;;;;;;5035557;28;20101;-80
2022/01/01 01:37:00;;;;;;;3.13;2.30;;;9.70;91.90;;;;;;5035539;28;20111;-79
2022/01/01 01:39:26;;;;;;;3.58;2.58;;;9.70;92.00;;;;;;5035232;28;20037;-81
2022/01/01 01:41:52;;;;;;;3.25;2.45;;;9.60;92.10;;;;;;5034515;28;20033;-79
2022/01/01 01:44:31;;;;;;;2.72;2.28;;;9.60;92.20;;;;;;5052213;28;20033;-78
2022/01/01 01:47:00;;;;;;;2.35;1.85;;;9.60;92.20;;;;;;5053562;28;20035;-78
2022/01/01 01:49:26;;;;;;;2.40;1.88;;;9.50;92.20;;;;;;5056742;28;20120;-79
2022/01/01 01:51:53;;;;;;;4.20;2.88;;;9.50;92.60;;;;;;5057606;28;20017;-82
2022/01/01 01:54:20;;;;;;;2.83;2.22;;;9.40;92.50;;;;;;5038158;28;20022;-81
2022/01/01 01:56:47;;;;;;;2.25;1.70;;;9.40;92.70;;;;;;5038435;28;20031;-80
2022/01/01 01:59:14;;;;;;;3.33;2.40;;;9.40;92.70;;;;;;5052854;28;20021;-80
2022/01/01 02:01:40;;;;;;;4.32;2.58;;;9.30;92.90;;;;;;5051925;28;20025;-80
2022/01/01 02:04:06;;;;;;;5.03;2.00;;;9.30;92.90;;;;;;5032280;28;20045;-79
2022/01/01 02:06:33;;;;;;;2.10;1.75;;;9.20;93.00;;;;;;5028854;28;20109;-79
2022/01/01 02:08:59;;;;;;;2.83;2.10;;;9.20;93.10;;;;;;5035897;28;20024;-79
2022/01/01 02:11:27;;;;;;;2.78;1.88;;;9.20;93.30;;;;;;5048704;28;20025;-79
2022/01/01 02:18:48;;;;;;;2.60;1.65;;;9.10;93.50;;;;;;5058078;28;20010;-79
2022/01/01 02:21:15;;;;;;;2.85;2.15;;;9.00;93.70;;;;;;5058654;28;20018;-79
2022/01/01 02:23:43;;;;;;;3.85;2.00;;;9.00;93.80;;;;;;5034579;28;20017;-80
2022/01/01 02:26:12;;;;;;;1.88;1.77;;;9.00;93.90;;;;;;5050535;28;20046;-80
2022/01/01 02:28:43;;;;;;;4.15;2.30;;;9.00;93.90;;;;;;5037353;28;20025;-80
2022/01/01 02:31:10;;;;;;;3.47;2.20;;;9.00;93.90;;;;;;5038206;28;20022;-79
2022/01/01 02:33:37;;;;;;;3.25;2.25;;;9.00;93.90;;;;;;5056109;28;20037;-79
2022/01/01 02:36:04;;;;;;;3.05;2.25;;;9.00;93.90;;;;;;5055494;28;20036;-79
2022/01/01 02:38:32;;;;;;;3.92;2.42;;;8.90;94.00;;;;;;5050682;28;20021;-80
2022/01/01 02:40:58;;;;;;;3.88;2.40;;;8.90;94.00;;;;;;5032619;28;20022;-80
2022/01/01 02:43:25;;;;;;;2.88;2.10;;;8.90;94.00;;;;;;5038076;28;20048;-79
2022/01/01 02:45:51;;;;;;;3.42;1.95;;;8.90;94.00;;;;;;5034046;28;20121;-79
2022/01/01 02:48:17;;;;;;;4.07;2.72;;;8.90;94.00;;;;;;5031837;28;20092;-79
2022/01/01 02:50:43;;;;;;;5.80;2.47;;;8.90;94.10;;;;;;5032608;28;20021;-79
2022/01/01 02:53:16;;;;;;;3.75;2.65;;;8.90;94.10;;;;;;5051154;28;20044;-79
2022/01/01 02:55:43;;;;;;;3.45;2.42;;;8.90;94.10;;;;;;5051101;28;20022;-79
2022/01/01 02:58:10;;;;;;;4.70;2.40;;;8.90;94.10;;;;;;5049103;28;20039;-78
2022/01/01 03:00:36;;;;;;;5.30;3.00;;;8.90;94.20;;;;;;5031792;28;20026;-79
2022/01/01 03:03:03;;;;;;;3.35;2.28;;;8.90;94.10;;;;;;5049023;28;20036;-79
2022/01/01 03:05:33;;;;;;;3.65;2.45;;;8.90;94.20;;;;;;5053342;28;20089;-78
2022/01/01 03:07:59;;;;;;;3.95;2.42;;;8.90;94.20;;;;;;5031565;28;20072;-80
2022/01/01 03:10:25;;;;;;;3.25;2.13;;;8.90;94.00;;;;;;5031161;28;20022;-78
2022/01/01 03:12:51;;;;;;;3.55;2.22;;;8.90;94.00;;;;;;5034385;28;20453;-79
2022/01/01 03:15:17;;;;;;;3.03;2.30;;;8.90;94.10;;;;;;5052407;28;20038;-80
2022/01/01 03:17:42;;;;;;;3.90;2.20;;;8.80;94.10;;;;;;5031772;28;20045;-79
2022/01/01 03:20:09;;;;;;;2.63;1.90;;;8.80;94.10;;;;;;5041228;28;20167;-80
2022/01/01 03:22:34;;;;;;;2.72;2.15;;;8.80;94.20;;;;;;5023048;28;20036;-80
2022/01/01 03:25:01;;;;;;;2.30;2.00;;;8.70;94.30;;;;;;5041896;28;20021;-79
2022/01/01 03:27:26;;;;;;;2.70;1.88;;;8.70;94.40;;;;;;5023149;28;20026;-80
2022/01/01 03:29:52;;;;;;;1.90;1.65;;;8.70;94.50;;;;;;5041599;28;20095;-80
2022/01/01 03:32:18;;;;;;;3.00;2.08;;;8.70;94.50;;;;;;5041660;28;20036;-79
2022/01/01 03:34:43;;;;;;;2.72;1.90;;;8.70;94.60;;;;;;5053236;22;20048;-84
2022/01/01 03:37:09;;;;;;;3.47;2.15;;;8.70;94.60;;;;;;5038337;28;20037;-81
2022/01/01 03:39:35;;;;;;;2.15;1.70;;;8.60;94.70;;;;;;5018856;28;20041;-82
2022/01/01 03:42:01;;;;;;;2.25;1.90;;;8.60;94.70;;;;;;5035912;28;20026;-83
2022/01/01 03:44:26;;;;;;;2.38;1.80;;;8.60;94.80;;;;;;5034403;28;20034;-83
2022/01/01 03:47:00;;;;;;;1.65;1.48;;;8.60;94.90;;;;;;5016990;28;20065;-83
2022/01/01 03:49:26;;;;;;;2.50;2.03;;;8.60;95.00;;;;;;5017327;28;20081;-82
2022/01/01 03:51:51;;;;;;;3.53;2.03;;;8.60;95.10;;;;;;5018292;28;20026;-82
2022/01/01 03:54:18;;;;;;;3.10;1.80;;;8.60;95.00;;;;;;5034871;28;20037;-83
2022/01/01 03:56:44;;;;;;;3.20;1.80;;;8.70;95.00;;;;;;5029804;28;20054;-84
2022/01/01 03:59:09;;;;;;;2.85;2.15;;;8.80;95.00;;;;;;5020835;28;20029;-85
2022/01/01 04:01:35;;;;;;;3.22;1.50;;;8.90;94.90;;;;;;5023011;28;20493;-83
2022/01/01 04:04:04;;;;;;;2.83;1.67;;;9.00;94.80;;;;;;5002181;28;20389;-84
2022/01/01 04:06:29;;;;;;;2.20;1.60;;;9.00;94.60;;;;;;5001603;28;20034;-83
2022/01/01 04:08:55;;;;;;;1.67;1.50;;;9.10;94.50;;;;;;5004222;28;20026;-85
2022/01/01 04:11:21;;;;;;;3.40;2.08;;;9.00;94.40;;;;;;4981202;28;20050;-82
2022/01/01 04:13:47;;;;;;;2.33;1.90;;;9.00;94.40;;;;;;4987138;28;20022;-85
2022/01/01 04:16:13;;;;;;;2.13;1.65;;;9.00;94.40;;;;;;5018109;28;20466;-85
2022/01/01 04:18:39;;;;;;;1.98;1.63;;;9.00;94.50;;;;;;5004179;28;20030;-84
2022/01/01 04:21:09;;;;;;;3.00;1.73;;;8.90;94.60;;;;;;5019009;28;20025;-85
2022/01/01 04:23:36;;;;;;;2.30;1.77;;;8.90;94.70;;;;;;5027721;28;20029;-83
2022/01/01 04:26:02;;;;;;;2.10;1.52;;;8.80;94.80;;;;;;5011440;28;20105;-85
2022/01/01 04:28:28;;;;;;;7.38;2.10;;;8.80;94.90;;;;;;5020677;28;20053;-85
2022/01/01 04:30:54;;;;;;;3.30;2.22;;;8.80;94.90;;;;;;5020135;28;20033;-85
2022/01/01 04:33:20;;;;;;;2.20;1.92;;;8.80;94.90;;;;;;5018889;28;20046;-85
2022/01/01 04:35:46;;;;;;;3.55;1.90;;;8.70;95.00;;;;;;5001049;28;20037;-85
2022/01/01 04:38:28;;;;;;;2.97;1.65;;;8.70;95.10;;;;;;5001407;28;20554;-86
2022/01/01 04:40:54;;;;;;;2.83;2.03;;;8.60;95.20;;;;;;5018163;28;20053;-86
2022/01/01 04:43:20;;;;;;;1.75;1.50;;;8.50;95.30;;;;;;5017709;28;20490;-84
2022/01/01 04:45:45;;;;;;;3.15;2.00;;;8.50;95.50;;;;;;4999523;28;20030;-85
2022/01/01 04:48:11;;;;;;;2.05;1.67;;;8.40;95.60;;;;;;4998739;28;20525;-85
2022/01/01 04:50:37;;;;;;;2.97;1.75;;;8.40;95.70;;;;;;5016979;28;20342;-85
2022/01/01 04:53:02;;;;;;;2.25;1.60;;;8.40;95.80;;;;;;5016807;28;20037;-85
2022/01/01 04:55:29;;;;;;;4.25;2.30;;;8.40;96.00;;;;;;5015745;28;20045;-85
2022/01/01 04:57:54;;;;;;;3.70;2.10;;;8.30;96.00;;;;;;5016105;28;20026;-85
2022/01/01 05:00:20;;;;;;;2.72;2.05;;;8.30;96.10;;;;;;5019113;28;20398;-84
2022/01/01 05:02:46;;;;;;;2.80;1.98;;;8.30;96.30;;;;;;5016514;28;20026;-83
2022/01/01 05:05:11;;;;;;;2.42;1.92;;;8.20;96.40;;;;;;4998473;28;20421;-86
2022/01/01 05:07:37;;;;;;;5.28;2.30;;;8.20;96.50;;;;;;4994548;28;20018;-83
2022/01/01 05:10:03;;;;;;;4.40;2.33;;;8.20;96.70;;;;;;5026124;28;20045;-83
2022/01/01 05:12:29;;;;;;;4.32;2.47;;;8.10;96.80;;;;;;5019017;28;20014;-82
2022/01/01 05:14:55;;;;;;;2.85;2.00;;;8.10;96.80;;;;;;5036393;28;20021;-82
2022/01/01 05:17:21;;;;;;;3.30;1.95;;;8.10;97.00;;;;;;5034996;28;20039;-82
2022/01/01 05:19:46;;;;;;;2.00;1.60;;;8.10;97.10;;;;;;5034721;28;20085;-84
2022/01/01 05:22:12;;;;;;;3.80;2.40;;;8.00;97.20;;;;;;5000200;28;20317;-84
2022/01/01 05:24:38;;;;;;;3.35;1.85;;;8.00;97.40;;;;;;5022093;28;20502;-83
2022/01/01 05:27:03;;;;;;;2.45;1.60;;;7.90;97.50;;;;;;5003954;28;20021;-84
2022/01/01 05:29:29;;;;;;;3.00;2.03;;;7.90;97.60;;;;;;5020684;28;20021;-84
2022/01/01 05:31:55;;;;;;;1.80;1.40;;;7.80;97.70;;;;;;5019726;28;20026;-83
2022/01/01 05:34:20;;;;;;;2.03;1.40;;;7.80;97.90;;;;;;5021271;28;20033;-84
2022/01/01 05:36:46;;;;;;;2.05;1.55;;;7.80;98.20;;;;;;5022982;28;20018;-85
2022/01/01 05:39:12;;;;;;;2.15;1.63;;;7.70;98.30;;;;;;5015480;28;20033;-84
2022/01/01 05:41:38;;;;;;;2.42;1.73;;;7.70;98.40;;;;;;4988787;28;20030;-86
2022/01/01 05:44:04;;;;;;;2.50;1.63;;;7.60;98.60;;;;;;5002994;28;20088;-85
2022/01/01 05:46:31;;;;;;;2.20;1.23;;;7.60;98.70;;;;;;5003258;28;20025;-84
2022/01/01 05:48:57;;;;;;;3.05;1.80;;;7.60;98.80;;;;;;4992880;28;20116;-84
2022/01/01 05:51:23;;;;;;;1.77;1.27;;;7.60;98.90;;;;;;5005607;28;20053;-85
2022/01/01 05:53:49;;;;;;;1.95;1.75;;;7.50;99.00;;;;;;5023235;28;20030;-85
2022/01/01 05:56:14;;;;;;;2.03;1.33;;;7.50;99.40;;;;;;5022815;28;20034;-86
2022/01/01 05:58:40;;;;;;;2.30;1.38;;;7.50;99.20;;;;;;5004187;28;20048;-86
2022/01/01 06:01:06;;;;;;;2.50;1.48;;;7.50;99.30;;;;;;5022242;28;20029;-84
2022/01/01 06:03:31;;;;;;;2.58;1.88;;;7.60;99.40;;;;;;5024162;28;20057;-84
2022/01/01 06:05:57;;;;;;;2.55;1.58;;;7.50;99.40;;;;;;5025714;28;20037;-82
2022/01/01 06:08:28;;;;;;;1.40;1.20;;;7.40;99.50;;;;;;5023177;28;20018;-84
2022/01/01 06:10:56;;;;;;;2.90;1.73;;;7.40;99.70;;;;;;5023939;28;20040;-83
2022/01/01 06:13:22;;;;;;;1.95;1.35;;;7.40;99.90;;;;;;5007112;28;20117;-84
2022/01/01 06:15:48;;;;;;;1.15;1.02;;;7.40;99.90;;;;;;5005305;28;20057;-83
2022/01/01 06:18:14;;;;;;;2.38;1.60;;;7.40;99.90;;;;;;5022720;28;20057;-85
2022/01/01 06:20:39;;;;;;;2.58;1.55;;;7.40;99.90;;;;;;5022675;28;20101;-83
2022/01/01 06:23:06;;;;;;;1.50;1.20;;;7.40;99.90;;;;;;5004827;28;20034;-85
2022/01/01 06:25:34;;;;;;;3.10;1.77;;;7.40;99.90;;;;;;5005137;28;20037;-83
2022/01/01 06:27:59;;;;;;;2.30;1.42;;;7.40;99.90;;;;;;5021820;28;20026;-85
2022/01/01 06:30:32;;;;;;;2.90;1.55;;;7.40;99.90;;;;;;5026869;28;20105;-84
2022/01/01 06:32:58;;;;;;;1.77;1.50;;;7.40;99.90;;;;;;5039249;28;20010;-82
2022/01/01 06:35:24;;;;;;;2.72;1.50;;;7.30;99.90;;;;;;5027802;28;20089;-85
2022/01/01 06:37:49;;;;;;;1.67;1.15;;;7.30;99.90;;;;;;5003847;28;20018;-85
2022/01/01 06:40:15;;;;;;;1.58;1.40;;;7.30;99.90;;;;;;5020409;28;20474;-85
2022/01/01 06:42:41;;;;;;;2.65;1.50;;;7.30;99.90;;;;;;5021556;28;20467;-85
2022/01/01 06:45:07;;;;;;;2.45;1.85;;;7.30;99.90;;;;;;5003275;28;20030;-85
2022/01/01 06:47:32;;;;;;;2.83;2.05;;;7.30;99.90;;;;;;5020281;28;20113;-84
2022/01/01 06:50:01;;;;;;;4.90;2.30;;;7.30;99.90;;;;;;5024873;28;20014;-86
2022/01/01 06:52:27;;;;;;;3.58;2.00;;;7.30;99.90;;;;;;5020480;28;20045;-84
2022/01/01 06:54:52;;;;;;;3.90;2.30;;;7.20;99.90;;;;;;5020486;28;20030;-86
2022/01/01 06:57:18;;;;;;;4.18;2.20;;;7.20;99.90;;;;;;5020952;28;20080;-84
2022/01/01 06:59:44;;;;;;;2.88;1.95;;;7.20;99.90;;;;;;5022318;28;20025;-84
2022/01/01 07:02:09;;;;;;;2.72;1.77;;;7.10;99.90;;;;;;5021156;28;20114;-83
2022/01/01 07:04:35;;;;;;;1.90;1.77;;;7.10;99.90;;;;;;5010135;28;20014;-85
2022/01/01 07:07:01;;;;;;;3.15;2.10;;;7.10;99.90;;;;;;5001286;28;20018;-84
2022/01/01 07:09:26;;;;;;;4.70;2.40;;;7.10;99.90;;;;;;5019312;28;20026;-83
2022/01/01 07:11:52;;;;;;;4.40;2.45;;;7.10;99.90;;;;;;5021498;28;20040;-84
2022/01/01 07:14:21;;;;;;;2.22;2.00;;;7.10;99.90;;;;;;4999820;28;20501;-83
2022/01/01 07:16:47;;;;;;;2.78;2.17;;;7.10;99.90;;;;;;5015315;28;20046;-82
2022/01/01 07:19:12;;;;;;;4.22;2.40;;;7.10;99.90;;;;;;5013981;28;20040;-84
2022/01/01 07:21:38;;;;;;;4.75;2.50;;;7.20;99.90;;;;;;5018224;28;20049;-84
2022/01/01 07:24:04;;;;;;;2.28;2.05;;;7.20;99.60;;;;;;4999804;28;20482;-84
2022/01/01 07:26:29;;;;;;;4.45;3.05;;;7.20;99.50;;;;;;5016736;28;20033;-82
2022/01/01 07:28:55;;;;;;;5.05;2.40;;;7.30;99.40;;;;;;5019914;28;20101;-83
2022/01/01 07:31:21;;;;;;;3.40;1.95;;;7.30;99.30;;;;;;5019291;28;20113;-84
2022/01/01 07:33:46;;;;;;;3.10;2.15;;;7.30;99.10;;;;;;5018858;28;20045;-84
2022/01/01 07:36:12;;;;;;;3.30;2.15;;;7.30;98.90;;;;;;5022778;28;20105;-83
2022/01/01 07:38:39;;;;;;;2.28;1.90;;;7.30;98.80;;;;;;5032904;28;20006;-83
2022/01/01 07:41:05;;;;;;;2.72;1.98;;;7.30;98.80;;;;;;5016016;28;20014;-83
2022/01/01 07:43:31;;;;;;;3.20;2.00;;;7.30;98.70;;;;;;5034483;28;20095;-83
2022/01/01 07:45:57;;;;;;;2.13;1.58;;;7.30;98.60;;;;;;5034730;28;20661;-83
2022/01/01 07:48:23;;;;;;;2.15;1.77;;;7.30;98.50;;;;;;5034453;28;20287;-83
2022/01/01 07:50:49;;;;;;;3.03;1.77;;;7.30;98.50;;;;;;5017897;28;20121;-83
2022/01/01 07:53:14;;;;;;;4.20;2.90;;;7.40;98.40;;;;;;5034659;28;20049;-83
2022/01/01 07:55:40;;;;;;;6.78;3.08;;;7.50;98.20;;;;;;5017203;28;20033;-83
2022/01/01 07:58:07;;;;;;;3.95;2.53;;;7.50;97.90;;;;;;5034612;28;20052;-83
2022/01/01 08:00:33;;;;;;;4.65;3.15;;;7.60;97.80;;;;;;5034508;28;20033;-83
2022/01/01 08:02:59;;;;;;;3.33;2.53;;;7.60;97.70;;;;;;5017897;28;20014;-83
2022/01/01 08:05:25;;;;;;;5.32;3.10;;;7.60;97.70;;;;;;5035184;28;20045;-83
2022/01/01 08:07:51;;;;;;;4.00;2.63;;;7.60;97.50;;;;;;5034271;28;20025;-83
2022/01/01 08:10:20;;;;;;;4.88;3.17;;;7.70;97.40;;;;;;5033806;28;20029;-83
2022/01/01 08:12:46;;;;;;;3.95;2.85;;;7.70;97.30;;;;;;5032815;28;20026;-83
2022/01/01 08:15:11;;;;;;;4.50;2.75;;;7.70;97.20;;;;;;5017638;28;20037;-83
2022/01/01 08:17:37;;;;;;;4.40;2.92;;;7.80;97.10;;;;;;5017564;28;20109;-82
2022/01/01 08:20:04;;;;;;;5.30;3.33;;;7.90;97.00;;;;;;5034668;28;20030;-82
2022/01/01 08:22:29;;;;;;;7.95;4.53;;;7.90;96.80;;;;;;5033698;28;20057;-81
2022/01/01 08:24:55;;;;;;;8.07;4.20;;;8.00;96.60;;;;;;5016578;28;20030;-83
2022/01/01 08:27:21;;;;;;;6.18;3.75;;;8.10;96.40;;;;;;5034727;28;20014;-82
2022/01/01 08:29:48;;;;;;;6.85;3.95;;;8.20;96.20;;;;;;5035099;28;20077;-82
2022/01/01 08:32:13;;;;;;;5.57;3.47;;;8.30;95.90;;;;;;5033556;28;20022;-82
2022/01/01 08:34:39;;;;;;;6.20;3.10;;;8.40;95.70;;;;;;5034683;28;20119;-82
2022/01/01 08:37:05;;;;;;;4.63;3.00;;;8.40;95.50;;;;;;5018003;28;20041;-82
2022/01/01 08:39:31;;;;;;;3.53;2.50;;;8.50;95.30;;;;;;4998647;28;20015;-82
2022/01/01 08:41:56;;;;;;;3.88;2.50;;;8.60;95.00;;;;;;5015354;28;20102;-83
2022/01/01 08:44:22;;;;;;;3.35;2.22;;;8.60;94.90;;;;;;5026144;28;20037;-83
2022/01/01 08:46:48;;;;;;;2.53;2.10;;;8.70;94.70;;;;;;5017599;28;20038;-83
2022/01/01 08:49:14;;;;;;;3.08;1.70;;;8.70;94.60;;;;;;5017415;28;20096;-82
2022/01/01 08:51:43;;;;;;;2.50;1.98;;;8.80;94.50;;;;;;5034749;28;20006;-83
2022/01/01 08:54:11;;;;;;;2.65;1.90;;;8.80;94.40;;;;;;5017084;28;20102;-83
2022/01/01 08:56:37;;;;;;;2.15;1.48;;;8.90;94.30;;;;;;5017150;28;20029;-83
2022/01/01 08:59:03;;;;;;;2.60;1.75;;;9.00;94.20;;;;;;5019092;28;20351;-85
2022/01/01 09:01:29;;;;;;;4.40;1.98;;;9.10;94.10;;;;;;5021606;28;20100;-85
2022/01/01 09:03:55;;;;;;;3.35;2.17;;;9.20;93.90;;;;;;5038155;28;20061;-82
2022/01/01 09:06:21;;;;;;;2.60;1.70;;;9.40;93.70;;;;;;5038271;28;20014;-82
2022/01/01 09:08:46;;;;;;;2.67;1.80;;;9.50;93.40;;;;;;5009024;28;20046;-82
2022/01/01 09:11:15;;;;;;;2.88;1.75;;;9.60;93.20;;;;;;5036436;28;20041;-84
2022/01/01 09:13:43;;;;;;;3.38;2.58;;;9.80;92.90;;;;;;5021076;28;20022;-82
2022/01/01 09:16:10;;;;;;;3.83;2.42;;;9.90;92.60;;;;;;5038769;28;20030;-84
2022/01/01 09:18:38;;;;;;;2.88;2.22;;;10.10;92.00;;;;;;5038543;28;20098;-82
2022/01/01 09:21:04;;;;;;;3.13;2.03;;;10.30;91.50;;;;;;5022829;28;20018;-82
2022/01/01 09:23:30;;;;;;;3.05;2.22;;;10.40;91.10;;;;;;5022471;28;20041;-82
2022/01/01 09:25:56;;;;;;;4.70;1.70;;;10.50;90.80;;;;;;5021016;28;20042;-82
2022/01/01 09:28:22;;;;;;;3.80;1.88;;;10.70;90.50;;;;;;5021413;28;20109;-83
2022/01/01 09:30:47;;;;;;;3.53;2.10;;;10.80;90.00;;;;;;5038182;28;20020;-84
2022/01/01 09:35:48;;;;;;;1.60;1.30;;;11.00;88.50;;;;;;5025737;28;20057;-80
2022/01/01 09:38:14;;;;;;;2.50;1.52;;;11.10;87.70;;;;;;5029314;28;20018;-80
2022/01/01 09:40:40;;;;;;;2.50;2.22;;;11.20;87.00;;;;;;5035741;28;20057;-80
2022/01/01 09:43:10;;;;;;;3.50;2.53;;;11.30;86.00;;;;;;5037391;28;20017;-80
2022/01/01 09:45:37;;;;;;;4.13;3.30;;;11.40;85.50;;;;;;5055935;28;20097;-80
2022/01/01 09:48:04;;;;;;;6.20;3.33;;;11.50;85.20;;;;;;5072564;28;20081;-80
2022/01/01 09:50:30;;;;;;;3.10;2.75;;;11.60;84.20;;;;;;5056135;28;20025;-80
2022/01/01 09:52:56;;;;;;;3.88;2.28;;;11.70;83.70;;;;;;5057268;28;20088;-80
2022/01/01 09:55:22;;;;;;;3.65;2.05;;;11.80;82.20;;;;;;5056962;28;20043;-81
2022/01/01 09:57:48;;;;;;;2.53;1.88;;;11.80;81.10;;;;;;5056677;28;20018;-81
2022/01/01 10:00:15;;;;;;;4.07;2.35;;;11.90;81.00;;;;;;5056786;28;20026;-80
2022/01/01 10:02:40;;;;;;;2.03;1.63;;;12.00;81.20;;;;;;5055094;28;20033;-80
2022/01/01 10:05:07;;;;;;;2.13;1.85;;;12.00;80.80;;;;;;5055869;28;20060;-80
2022/01/01 10:07:32;;;;;;;3.00;1.95;;;12.10;80.60;;;;;;5054101;28;20026;-79
2022/01/01 10:10:19;;;;;;;2.95;2.13;;;12.20;80.30;;;;;;5049578;28;20020;-79
2022/01/01 10:12:45;;;;;;;2.63;1.85;;;12.20;79.20;;;;;;5035369;28;20014;-79
2022/01/01 10:15:11;;;;;;;2.30;2.10;;;12.30;79.10;;;;;;5036493;28;20083;-79
2022/01/01 10:17:38;;;;;;;2.70;2.08;;;12.30;79.00;;;;;;5034785;28;20033;-80
2022/01/01 10:20:04;;;;;;;3.30;2.20;;;12.40;78.60;;;;;;5034685;28;20045;-79
2022/01/01 10:22:30;;;;;;;3.45;2.45;;;12.40;78.20;;;;;;5035804;28;20088;-79
2022/01/01 10:27:55;;;;;;;2.78;2.13;;;12.50;77.70;;;;;;5044395;28;20063;-80
2022/01/01 10:30:28;;;;;;;2.63;1.92;;;12.60;77.10;;;;;;5052832;28;20085;-80
2022/01/01 10:33:07;;;;;;;4.38;2.00;;;12.60;77.10;;;;;;5052771;28;20077;-80
2022/01/01 10:35:43;;;;;;;2.70;2.08;;;12.60;76.70;;;;;;5054302;28;20068;-80
2022/01/01 10:38:12;;;;;;;3.50;2.53;;;12.70;76.70;;;;;;5043688;28;20036;-79
2022/01/01 10:40:38;;;;;;;3.35;2.25;;;12.80;76.30;;;;;;5046076;28;20029;-79
2022/01/01 10:43:08;;;;;;;3.30;2.25;;;12.80;75.70;;;;;;5052342;28;20022;-79
2022/01/01 10:45:35;;;;;;;5.38;2.72;;;12.80;75.60;;;;;;5052877;28;20089;-79
2022/01/01 10:48:40;;;;;;;3.38;2.17;;;12.80;75.90;;;;;;5051568;28;20148;-79
2022/01/01 10:51:09;;;;;;;2.17;1.98;;;12.80;75.70;;;;;;5056626;28;20018;-81
2022/01/01 10:53:36;;;;;;;5.20;2.85;;;12.80;75.80;;;;;;5050062;28;20064;-80
2022/01/01 10:56:05;;;;;;;3.00;1.83;;;12.90;75.40;;;;;;5068678;28;20041;-81
2022/01/01 10:58:34;;;;;;;2.15;1.80;;;12.90;75.50;;;;;;5048603;28;20124;-80
2022/01/01 11:01:05;;;;;;;2.42;2.00;;;12.80;75.70;;;;;;5036647;28;20014;-83
2022/01/01 11:03:45;;;;;;;3.75;2.58;;;12.90;75.70;;;;;;5032985;28;20122;-81
2022/01/01 11:06:17;;;;;;;2.80;2.10;;;12.80;75.90;;;;;;5032075;28;20060;-79
2022/01/01 11:08:45;;;;;;;2.95;1.67;;;12.80;76.00;;;;;;5035807;28;20037;-78
2022/01/01 11:11:13;;;;;;;2.35;1.88;;;12.90;76.20;;;;;;5033108;28;20026;-81
2022/01/01 11:13:40;;;;;;;2.53;2.17;;;12.90;76.10;;;;;;5033961;28;20014;-80
2022/01/01 11:16:08;;;;;;;3.05;1.88;;;12.90;76.30;;;;;;5033614;28;20026;-80
2022/01/01 11:18:35;;;;;;;3.20;2.00;;;12.90;76.20;;;;;;5033771;28;20038;-81
2022/01/01 11:21:05;;;;;;;2.38;1.85;;;12.80;76.30;;;;;;5034069;28;20029;-80
2022/01/01 11:23:34;;;;;;;2.30;1.85;;;12.80;76.80;;;;;;5033948;28;20022;-81
2022/01/01 11:28:49;;;;;;;1.88;1.55;;;12.90;77.00;;;;;;5034831;28;20069;-80
2022/01/01 11:31:19;;;;;;;1.92;1.50;;;12.90;77.10;;;;;;5052776;28;20036;-80
2022/01/01 11:33:54;;;;;;;1.90;1.70;;;12.80;77.20;;;;;;5052548;28;20037;-79
2022/01/01 11:36:24;;;;;;;2.20;1.60;;;12.80;77.30;;;;;;5052943;28;20493;-80
2022/01/01 11:38:52;;;;;;;2.05;1.40;;;12.80;77.60;;;;;;5040367;28;20028;-80
2022/01/01 11:41:18;;;;;;;1.35;1.20;;;12.80;77.90;;;;;;5035616;28;20048;-79
2022/01/01 11:43:55;;;;;;;1.77;1.45;;;12.80;78.10;;;;;;5030736;28;20069;-79
2022/01/01 11:46:30;;;;;;;1.25;1.15;;;12.70;78.40;;;;;;5032621;28;20053;-81
2022/01/01 11:48:57;;;;;;;2.00;1.52;;;12.80;78.80;;;;;;5031699;28;20022;-80
2022/01/01 11:51:24;;;;;;;2.13;1.60;;;12.80;78.90;;;;;;5046247;28;20082;-79
2022/01/01 11:54:38;;;;;;;1.77;1.20;;;12.70;79.10;;;;;;5031277;28;20021;-80
2022/01/01 11:57:19;;;;;;;2.05;1.48;;;12.80;79.40;;;;;;5022160;28;20025;-80
2022/01/01 11:59:55;;;;;;;1.90;1.55;;;12.80;79.40;;;;;;5029836;28;20014;-81
2022/01/01 12:02:26;;;;;;;1.70;1.40;;;12.80;79.30;;;;;;5032124;28;20592;-79
2022/01/01 12:04:54;;;;;;;3.13;1.52;;;12.80;79.60;;;;;;5031460;28;20017;-79
2022/01/01 12:07:20;;;;;;;2.00;1.20;;;12.80;79.60;;;;;;5033727;28;20014;-79
2022/01/01 12:09:58;;;;;;;1.90;1.48;;;12.90;79.40;;;;;;5046484;28;20017;-80
2022/01/01 12:12:37;;;;;;;5.28;2.20;;;12.90;79.40;;;;;;5031999;28;20033;-80
2022/01/01 12:15:08;;;;;;;1.90;1.10;;;12.90;79.30;;;;;;5031644;28;20057;-81
2022/01/01 12:17:43;;;;;;;2.00;1.30;;;12.80;79.40;;;;;;5030912;28;20036;-81
2022/01/01 12:20:21;;;;;;;1.73;1.30;;;12.90;79.80;;;;;;5032704;28;20022;-80
2022/01/01 12:22:48;;;;;;;1.52;1.20;;;12.90;79.50;;;;;;5032679;28;20037;-80
2022/01/01 12:25:25;;;;;;;1.98;1.42;;;12.90;79.40;;;;;;5032052;28;20049;-81
2022/01/01 12:27:53;;;;;;;1.08;0.90;;;13.00;79.20;;;;;;5032281;28;20121;-80
2022/01/01 12:30:38;;;;;;;2.08;1.50;;;13.00;79.30;;;;;;5033203;28;20032;-81
2022/01/01 12:33:06;;;;;;;3.40;1.70;;;13.10;79.10;;;;;;5047903;28;20014;-81
2022/01/01 12:35:48;;;;;;;2.33;1.50;;;13.20;78.70;;;;;;5033239;28;20054;-79
2022/01/01 12:38:27;;;;;;;1.75;1.30;;;13.30;78.30;;;;;;5038010;28;20029;-80
2022/01/01 12:41:04;;;;;;;2.17;1.15;;;13.30;78.30;;;;;;5038530;28;20014;-79
2022/01/01 12:43:34;;;;;;;1.30;1.20;;;13.30;78.30;;;;;;5032631;28;20162;-81
2022/01/01 12:46:02;;;;;;;1.85;1.10;;;13.30;78.30;;;;;;5031060;28;20022;-79
2022/01/01 12:48:32;;;;;;;5.03;1.88;;;13.30;78.40;;;;;;5032049;28;20022;-80
2022/01/01 12:51:03;;;;;;;2.63;1.40;;;13.30;78.40;;;;;;5030936;28;20024;-79
2022/01/01 12:53:30;;;;;;;1.75;1.50;;;13.30;78.50;;;;;;5032090;28;20057;-80
2022/01/01 12:56:02;;;;;;;1.85;1.65;;;13.30;78.10;;;;;;5031896;28;20022;-79
2022/01/01 12:58:40;;;;;;;2.20;1.45;;;13.30;78.30;;;;;;5031984;28;20038;-79
2022/01/01 13:01:16;;;;;;;2.78;1.65;;;13.30;78.80;;;;;;5032053;28;20030;-79
2022/01/01 13:03:50;;;;;;;2.33;1.50;;;13.30;79.00;;;;;;5048500;28;20029;-80
2022/01/01 13:06:36;;;;;;;1.95;1.15;;;13.30;78.80;;;;;;5052259;28;20063;-80
2022/01/01 13:09:14;;;;;;;1.65;1.33;;;13.40;79.10;;;;;;5051589;28;20022;-80